Time;durP1;ratioP1;P1;durP2;ratioP2;P2;SDS_P1;SDS_P2;PMS_P1;PMS_P2;Temp;Humidity;BMP_temperature;BMP_pressure;BME280_temperature;BME280_humidity;BME280_pressure;Samples;Min_cycle;Max_cycle;Signal;HPM_P1;HPM_P2
2023/09/24 00:02:07;;;;;;;;;;;12.50;99.90;;;;;;4934019;29;19980;-86
2023/09/24 00:04:33;;;;;;;;;;;12.50;99.90;;;;;;4918340;29;19931;-86
2023/09/24 00:06:58;;;;;;;;;;;12.40;99.90;;;;;;4918427;29;19927;-85
2023/09/24 00:09:24;;;;;;;;;;;12.40;99.90;;;;;;4931645;29;19931;-85
2023/09/24 00:11:49;;;;;;;;;;;12.30;99.90;;;;;;4917469;29;19966;-86
2023/09/24 00:14:15;;;;;;;;;;;12.20;99.90;;;;;;4918494;29;19926;-86
2023/09/24 00:16:40;;;;;;;;;;;12.20;99.90;;;;;;4947283;29;20403;-86
2023/09/24 00:19:06;;;;;;;;;;;12.20;99.90;;;;;;4917848;29;19927;-86
2023/09/24 00:21:32;;;;;;;;;;;12.10;99.90;;;;;;4931729;29;19984;-86
2023/09/24 00:23:57;;;;;;;;;;;12.00;99.90;;;;;;4933714;28;19931;-85
2023/09/24 00:26:24;;;;;;;;;;;12.00;99.90;;;;;;4941361;29;20381;-86
2023/09/24 00:28:50;;;;;;;;;;;11.90;99.90;;;;;;4937352;29;20412;-86
2023/09/24 00:31:15;;;;;;;;;;;11.90;99.90;;;;;;4933181;29;19931;-86
2023/09/24 00:33:41;;;;;;;;;;;11.80;99.90;;;;;;4915075;28;19927;-85
2023/09/24 00:36:07;;;;;;;;;;;11.80;99.90;;;;;;4932522;29;19990;-86
2023/09/24 00:38:32;;;;;;;;;;;11.80;99.90;;;;;;4932341;29;20370;-86
2023/09/24 00:40:58;;;;;;;;;;;11.80;99.90;;;;;;4931809;28;19950;-85
2023/09/24 00:43:34;;;;;;;;;;;11.80;99.90;;;;;;4931041;29;20038;-85
2023/09/24 00:46:03;;;;;;;;;;;11.80;99.90;;;;;;4930761;28;19931;-86
2023/09/24 00:48:29;;;;;;;;;;;11.80;99.90;;;;;;4932367;29;19970;-86
2023/09/24 00:50:59;;;;;;;;;;;11.90;99.90;;;;;;4903173;29;20039;-86
2023/09/24 00:53:26;;;;;;;;;;;11.90;99.90;;;;;;4935140;29;19935;-86
2023/09/24 00:55:52;;;;;;;;;;;11.90;99.90;;;;;;4934760;28;19970;-85
2023/09/24 00:58:18;;;;;;;;;;;11.90;99.90;;;;;;4933710;29;19930;-86
2023/09/24 01:00:46;;;;;;;;;;;11.90;99.90;;;;;;4935418;29;19927;-85
2023/09/24 01:03:13;;;;;;;;;;;11.90;99.90;;;;;;4918419;29;19927;-86
2023/09/24 01:05:39;;;;;;;;;;;11.90;99.90;;;;;;4934855;29;19950;-85
2023/09/24 01:08:05;;;;;;;;;;;12.00;99.90;;;;;;4934876;29;19935;-85
2023/09/24 01:10:30;;;;;;;;;;;12.00;99.90;;;;;;4931863;29;19934;-85
2023/09/24 01:13:00;;;;;;;;;;;11.90;99.90;;;;;;4932309;29;19988;-86
2023/09/24 01:15:27;;;;;;;;;;;11.90;99.90;;;;;;4934155;29;19926;-84
2023/09/24 01:17:53;;;;;;;;;;;12.00;99.90;;;;;;4928242;29;19926;-85
2023/09/24 01:20:21;;;;;;;;;;;11.90;99.90;;;;;;4917879;29;19928;-86
2023/09/24 01:22:47;;;;;;;;;;;11.90;99.90;;;;;;4945366;29;19930;-86
2023/09/24 01:25:12;;;;;;;;;;;11.90;99.90;;;;;;4930023;29;19937;-86
2023/09/24 01:27:38;;;;;;;;;;;11.90;99.90;;;;;;4939553;28;20386;-85
2023/09/24 01:30:06;;;;;;;;;;;11.90;99.90;;;;;;4933705;29;19930;-86
2023/09/24 01:32:32;;;;;;;;;;;11.90;99.90;;;;;;4918530;29;20456;-86
2023/09/24 01:35:02;;;;;;;;;;;11.80;99.90;;;;;;4927743;29;20014;-86
2023/09/24 01:37:28;;;;;;;;;;;11.90;99.90;;;;;;4935601;29;20000;-86
2023/09/24 01:39:54;;;;;;;;;;;11.80;99.90;;;;;;4985983;28;19927;-86
2023/09/24 01:42:20;;;;;;;;;;;11.80;99.90;;;;;;4936559;29;19988;-86
2023/09/24 01:44:46;;;;;;;;;;;11.70;99.90;;;;;;4935615;29;20021;-86
2023/09/24 01:47:11;;;;;;;;;;;11.60;99.90;;;;;;4918338;28;19937;-85
2023/09/24 01:49:37;;;;;;;;;;;11.60;99.90;;;;;;4922242;29;19931;-85
2023/09/24 01:52:04;;;;;;;;;;;11.50;99.90;;;;;;4956229;28;20435;-86
2023/09/24 01:54:30;;;;;;;;;;;11.50;99.90;;;;;;4940179;29;20332;-86
2023/09/24 01:56:57;;;;;;;;;;;11.50;99.90;;;;;;4933918;29;19926;-86
2023/09/24 01:59:23;;;;;;;;;;;11.40;99.90;;;;;;4939821;29;20421;-86
2023/09/24 02:01:50;;;;;;;;;;;11.40;99.90;;;;;;4935211;28;19927;-86
2023/09/24 02:04:16;;;;;;;;;;;11.30;99.90;;;;;;4950212;28;19926;-85
2023/09/24 02:06:42;;;;;;;;;;;11.40;99.90;;;;;;4933792;29;19927;-85
2023/09/24 02:09:07;;;;;;;;;;;11.30;99.90;;;;;;4933965;29;20370;-85
2023/09/24 02:11:33;;;;;;;;;;;11.30;99.90;;;;;;4917380;29;19961;-86
2023/09/24 02:13:58;;;;;;;;;;;11.30;99.90;;;;;;4936404;28;19927;-85
2023/09/24 02:16:24;;;;;;;;;;;11.30;99.90;;;;;;4935302;29;19931;-86
2023/09/24 02:18:50;;;;;;;;;;;11.20;99.90;;;;;;4950625;29;19930;-86
2023/09/24 02:21:17;;;;;;;;;;;11.20;99.90;;;;;;4920455;29;19934;-86
2023/09/24 02:23:43;;;;;;;;;;;11.10;99.90;;;;;;4919510;29;19935;-86
2023/09/24 02:26:09;;;;;;;;;;;11.10;99.90;;;;;;4937629;29;20057;-86
2023/09/24 02:28:38;;;;;;;;;;;11.00;99.90;;;;;;4918493;29;19938;-86
2023/09/24 02:31:07;;;;;;;;;;;11.00;99.90;;;;;;4933546;29;19938;-85
2023/09/24 02:33:34;;;;;;;;;;;11.00;99.90;;;;;;4950162;28;19933;-85
2023/09/24 02:36:00;;;;;;;;;;;11.00;99.90;;;;;;4917676;29;19926;-85
2023/09/24 02:38:25;;;;;;;;;;;10.90;99.90;;;;;;4931643;29;19933;-85
2023/09/24 02:40:55;;;;;;;;;;;10.90;99.90;;;;;;4918329;29;19927;-86
2023/09/24 02:43:22;;;;;;;;;;;10.90;99.90;;;;;;4933987;29;19931;-85
2023/09/24 02:45:48;;;;;;;;;;;10.90;99.90;;;;;;4918581;29;19942;-86
2023/09/24 02:48:14;;;;;;;;;;;10.80;99.90;;;;;;4932327;29;20017;-85
2023/09/24 02:50:39;;;;;;;;;;;10.80;99.90;;;;;;4931972;28;19931;-85
2023/09/24 02:53:08;;;;;;;;;;;10.80;99.90;;;;;;4933889;29;19933;-85
2023/09/24 02:55:36;;;;;;;;;;;10.80;99.90;;;;;;4934024;29;19927;-85
2023/09/24 02:58:03;;;;;;;;;;;10.70;99.90;;;;;;4932504;29;19978;-86
2023/09/24 03:00:42;;;;;;;;;;;10.70;99.90;;;;;;4920736;29;19931;-85
2023/09/24 03:03:09;;;;;;;;;;;10.70;99.90;;;;;;4931590;28;20390;-84
2023/09/24 03:05:38;;;;;;;;;;;10.70;99.90;;;;;;4920100;29;20021;-84
2023/09/24 03:08:04;;;;;;;;;;;10.70;99.90;;;;;;4933038;28;19928;-86
2023/09/24 03:10:31;;;;;;;;;;;10.60;99.90;;;;;;4947515;28;20030;-85
2023/09/24 03:12:57;;;;;;;;;;;10.60;99.90;;;;;;4933263;29;19927;-85
2023/09/24 03:15:26;;;;;;;;;;;10.60;99.90;;;;;;4918097;28;19941;-86
2023/09/24 03:17:52;;;;;;;;;;;10.60;99.90;;;;;;4932083;29;20390;-86
2023/09/24 03:20:17;;;;;;;;;;;10.60;99.90;;;;;;4933710;28;19938;-86
2023/09/24 03:22:48;;;;;;;;;;;10.50;99.90;;;;;;4917806;29;19957;-85
2023/09/24 03:25:24;;;;;;;;;;;10.60;99.90;;;;;;4932369;29;20302;-85
2023/09/24 03:27:50;;;;;;;;;;;10.50;99.90;;;;;;4930451;28;19942;-84
2023/09/24 03:30:19;;;;;;;;;;;10.50;99.90;;;;;;4938109;28;19927;-85
2023/09/24 03:32:46;;;;;;;;;;;10.50;99.90;;;;;;4917655;29;19934;-86
2023/09/24 03:35:14;;;;;;;;;;;10.50;99.90;;;;;;4935359;29;19972;-85
2023/09/24 03:37:43;;;;;;;;;;;10.40;99.90;;;;;;4949559;28;19930;-85
2023/09/24 03:40:18;;;;;;;;;;;10.40;99.90;;;;;;4931908;29;19930;-86
2023/09/24 03:42:44;;;;;;;;;;;10.40;99.90;;;;;;4933385;29;19931;-86
2023/09/24 03:45:11;;;;;;;;;;;10.30;99.90;;;;;;4933611;29;19934;-85
2023/09/24 03:47:38;;;;;;;;;;;10.30;99.90;;;;;;4929532;29;20278;-85
2023/09/24 03:50:05;;;;;;;;;;;10.30;99.90;;;;;;4930530;29;19931;-87
2023/09/24 03:52:30;;;;;;;;;;;10.30;99.90;;;;;;4929997;28;19927;-86
2023/09/24 03:54:59;;;;;;;;;;;10.30;99.90;;;;;;4932409;28;19933;-86
2023/09/24 03:57:27;;;;;;;;;;;10.30;99.90;;;;;;4933101;29;19937;-86
2023/09/24 03:59:56;;;;;;;;;;;10.20;99.90;;;;;;4915834;29;19931;-86
2023/09/24 04:02:22;;;;;;;;;;;10.20;99.90;;;;;;4930195;29;19927;-86
2023/09/24 04:04:48;;;;;;;;;;;10.20;99.90;;;;;;4931485;28;20361;-85
2023/09/24 04:07:15;;;;;;;;;;;10.10;99.90;;;;;;4934175;28;19926;-85
2023/09/24 04:09:43;;;;;;;;;;;10.10;99.90;;;;;;4932438;29;19930;-86
2023/09/24 04:12:09;;;;;;;;;;;10.10;99.90;;;;;;4932973;29;20386;-85
2023/09/24 04:14:35;;;;;;;;;;;10.10;99.90;;;;;;4947367;28;19977;-85
2023/09/24 04:17:02;;;;;;;;;;;10.10;99.90;;;;;;4932097;29;19927;-86
2023/09/24 04:19:29;;;;;;;;;;;10.10;99.90;;;;;;4932937;29;19931;-86
2023/09/24 04:21:55;;;;;;;;;;;10.10;99.90;;;;;;4917088;29;19927;-85
2023/09/24 04:24:20;;;;;;;;;;;10.00;99.90;;;;;;4931130;29;19927;-86
2023/09/24 04:26:46;;;;;;;;;;;10.00;99.90;;;;;;4918940;29;19930;-85
2023/09/24 04:29:12;;;;;;;;;;;10.00;99.90;;;;;;4900424;29;19926;-85
2023/09/24 04:31:38;;;;;;;;;;;10.00;99.90;;;;;;4932409;29;20302;-84
2023/09/24 04:34:04;;;;;;;;;;;9.90;99.90;;;;;;4931640;29;19931;-85
2023/09/24 04:36:29;;;;;;;;;;;9.90;99.90;;;;;;4931563;29;19934;-85
2023/09/24 04:38:55;;;;;;;;;;;9.90;99.90;;;;;;4932596;29;19927;-85
2023/09/24 04:41:21;;;;;;;;;;;9.80;99.90;;;;;;4947250;28;19931;-86
2023/09/24 04:43:47;;;;;;;;;;;9.90;99.90;;;;;;4916113;29;20309;-86
2023/09/24 04:46:13;;;;;;;;;;;9.90;99.90;;;;;;4916774;29;19927;-85
2023/09/24 04:48:38;;;;;;;;;;;9.90;99.90;;;;;;4916230;29;20017;-85
2023/09/24 04:51:04;;;;;;;;;;;9.90;99.90;;;;;;4935815;29;19934;-85
2023/09/24 04:53:30;;;;;;;;;;;9.90;99.90;;;;;;4932251;29;20247;-86
2023/09/24 04:55:57;;;;;;;;;;;9.90;99.90;;;;;;4916648;29;19927;-87
2023/09/24 04:58:23;;;;;;;;;;;9.80;99.90;;;;;;4916261;29;19978;-86
2023/09/24 05:00:49;;;;;;;;;;;9.90;99.90;;;;;;4932650;29;19927;-85
2023/09/24 05:03:15;;;;;;;;;;;9.90;99.90;;;;;;4931995;29;19937;-85
2023/09/24 05:05:43;;;;;;;;;;;9.80;99.90;;;;;;4914913;29;20014;-86
2023/09/24 05:08:09;;;;;;;;;;;9.80;99.90;;;;;;4916100;29;20382;-86
2023/09/24 05:10:36;;;;;;;;;;;9.80;99.90;;;;;;4931513;29;20061;-86
2023/09/24 05:13:03;;;;;;;;;;;9.80;99.90;;;;;;4913428;29;19946;-85
2023/09/24 05:15:29;;;;;;;;;;;9.80;99.90;;;;;;4928696;29;20014;-85
2023/09/24 05:17:55;;;;;;;;;;;9.80;99.90;;;;;;4931000;29;19934;-86
2023/09/24 05:20:21;;;;;;;;;;;9.80;99.90;;;;;;4932320;29;20270;-86
2023/09/24 05:22:46;;;;;;;;;;;9.80;99.90;;;;;;4932269;29;19936;-85
2023/09/24 05:25:12;;;;;;;;;;;9.80;99.90;;;;;;4931645;29;20010;-87
2023/09/24 05:27:38;;;;;;;;;;;9.80;99.90;;;;;;4932178;29;19931;-86
2023/09/24 05:30:04;;;;;;;;;;;9.80;99.90;;;;;;4930714;29;19949;-85
2023/09/24 05:32:32;;;;;;;;;;;9.80;99.90;;;;;;4947488;28;20350;-86
2023/09/24 05:34:57;;;;;;;;;;;9.80;99.90;;;;;;4954074;28;19930;-85
2023/09/24 05:37:23;;;;;;;;;;;9.80;99.90;;;;;;4936607;29;19980;-86
2023/09/24 05:39:48;;;;;;;;;;;9.80;99.90;;;;;;4935958;29;19989;-85
2023/09/24 05:42:14;;;;;;;;;;;9.80;99.90;;;;;;4934160;29;19931;-86
2023/09/24 05:44:39;;;;;;;;;;;9.80;99.90;;;;;;4949076;28;19979;-85
2023/09/24 05:47:07;;;;;;;;;;;9.80;99.90;;;;;;4933160;29;19930;-86
2023/09/24 05:49:32;;;;;;;;;;;9.80;99.90;;;;;;4934077;29;20356;-85
2023/09/24 05:51:58;;;;;;;;;;;9.70;99.90;;;;;;4918085;29;20022;-85
2023/09/24 05:54:23;;;;;;;;;;;9.80;99.90;;;;;;4934130;29;20389;-85
2023/09/24 05:56:49;;;;;;;;;;;9.80;99.90;;;;;;4932158;28;19969;-85
2023/09/24 05:59:15;;;;;;;;;;;9.80;99.90;;;;;;4917087;29;20329;-86
2023/09/24 06:01:42;;;;;;;;;;;9.90;99.90;;;;;;4918303;29;20328;-84
2023/09/24 06:04:07;;;;;;;;;;;9.80;99.90;;;;;;4934057;29;19977;-86
2023/09/24 06:06:36;;;;;;;;;;;9.90;99.90;;;;;;4934528;28;19985;-88
2023/09/24 06:09:08;;;;;;;;;;;10.00;99.90;;;;;;4933431;29;19966;-84
2023/09/24 06:11:35;;;;;;;;;;;10.00;99.90;;;;;;4934030;28;20366;-85
2023/09/24 06:14:03;;;;;;;;;;;10.00;99.90;;;;;;4926890;28;20052;-82
2023/09/24 06:16:29;;;;;;;;;;;10.10;99.90;;;;;;4934014;29;19931;-85
2023/09/24 06:18:54;;;;;;;;;;;10.10;99.90;;;;;;4930590;28;19950;-84
2023/09/24 06:21:20;;;;;;;;;;;10.20;99.90;;;;;;4929776;28;19982;-87
2023/09/24 06:23:46;;;;;;;;;;;10.20;99.90;;;;;;4927813;29;20081;-86
2023/09/24 06:26:11;;;;;;;;;;;10.20;99.90;;;;;;4941921;28;19973;-85
2023/09/24 06:28:37;;;;;;;;;;;10.20;99.90;;;;;;4935942;28;19942;-83
2023/09/24 06:31:03;;;;;;;;;;;10.30;99.90;;;;;;4917193;29;19931;-85
2023/09/24 06:33:29;;;;;;;;;;;10.30;99.90;;;;;;4931458;29;19931;-84
2023/09/24 06:35:55;;;;;;;;;;;10.40;99.90;;;;;;4917617;29;19927;-85
2023/09/24 06:38:20;;;;;;;;;;;10.40;99.90;;;;;;4941948;28;20336;-84
2023/09/24 06:40:54;;;;;;;;;;;10.50;99.90;;;;;;4918230;29;19926;-84
2023/09/24 06:43:20;;;;;;;;;;;10.60;99.90;;;;;;4934403;29;20328;-85
2023/09/24 06:45:45;;;;;;;;;;;10.60;99.90;;;;;;4913070;29;19927;-84
2023/09/24 06:48:11;;;;;;;;;;;10.70;99.90;;;;;;4935049;29;19934;-84
2023/09/24 06:50:37;;;;;;;;;;;10.70;99.90;;;;;;4935411;29;19984;-84
2023/09/24 06:53:03;;;;;;;;;;;10.80;99.90;;;;;;4949267;28;20362;-83
2023/09/24 06:55:29;;;;;;;;;;;10.80;99.90;;;;;;4919388;29;19931;-84
2023/09/24 06:57:54;;;;;;;;;;;10.90;99.90;;;;;;4917669;29;19931;-84
2023/09/24 07:00:20;;;;;;;;;;;11.00;99.90;;;;;;4933623;29;19931;-85
2023/09/24 07:02:45;;;;;;;;;;;11.00;99.90;;;;;;4932552;29;19938;-83
2023/09/24 07:05:11;;;;;;;;;;;11.10;99.90;;;;;;4932764;29;19935;-85
2023/09/24 07:07:37;;;;;;;;;;;11.10;99.90;;;;;;4948411;28;19950;-83
2023/09/24 07:10:03;;;;;;;;;;;11.10;99.90;;;;;;4910512;29;19927;-83
2023/09/24 07:12:29;;;;;;;;;;;11.20;99.90;;;;;;4931858;29;19938;-84
2023/09/24 07:14:54;;;;;;;;;;;11.50;99.90;;;;;;4932145;28;19927;-84
2023/09/24 07:17:20;;;;;;;;;;;11.90;99.90;;;;;;4931346;29;19938;-85
2023/09/24 07:19:48;;;;;;;;;;;12.40;99.90;;;;;;4925393;28;19934;-84
2023/09/24 07:22:14;;;;;;;;;;;13.00;99.90;;;;;;4912007;29;20386;-83
2023/09/24 07:24:39;;;;;;;;;;;13.70;99.90;;;;;;4932340;28;19978;-83
2023/09/24 07:27:05;;;;;;;;;;;14.30;99.90;;;;;;4932042;29;20370;-86
2023/09/24 07:29:30;;;;;;;;;;;14.80;99.90;;;;;;4957694;28;19931;-85
2023/09/24 07:31:56;;;;;;;;;;;15.10;99.90;;;;;;4987552;28;19938;-85
2023/09/24 07:34:22;;;;;;;;;;;15.30;99.90;;;;;;4909900;29;20022;-86
2023/09/24 07:36:48;;;;;;;;;;;15.40;99.90;;;;;;4936921;29;20279;-86
2023/09/24 07:39:14;;;;;;;;;;;15.30;99.90;;;;;;4930984;28;19973;-86
2023/09/24 07:41:39;;;;;;;;;;;15.20;99.90;;;;;;4943095;28;19927;-85
2023/09/24 07:44:05;;;;;;;;;;;15.00;99.90;;;;;;4930125;29;20398;-86
2023/09/24 07:46:30;;;;;;;;;;;15.00;99.90;;;;;;4929230;29;19927;-87
2023/09/24 07:48:56;;;;;;;;;;;15.20;99.90;;;;;;4929599;29;19938;-87
2023/09/24 07:51:22;;;;;;;;;;;15.40;99.90;;;;;;4929462;29;19966;-87
2023/09/24 07:53:50;;;;;;;;;;;15.30;99.90;;;;;;4941149;29;19935;-86
2023/09/24 07:56:17;;;;;;;;;;;15.00;99.90;;;;;;4919553;29;20014;-86
2023/09/24 07:58:43;;;;;;;;;;;14.70;99.90;;;;;;4928459;29;19926;-85
2023/09/24 08:01:09;;;;;;;;;;;14.40;99.90;;;;;;4913871;29;19935;-88
2023/09/24 08:03:36;;;;;;;;;;;14.20;99.90;;;;;;4947500;28;19933;-86
2023/09/24 08:06:02;;;;;;;;;;;14.10;99.90;;;;;;4929993;28;19927;-86
2023/09/24 08:08:28;;;;;;;;;;;13.90;99.90;;;;;;4929988;29;19959;-85
2023/09/24 08:10:54;;;;;;;;;;;13.90;99.90;;;;;;4931496;29;19927;-87
2023/09/24 08:13:20;;;;;;;;;;;13.80;99.90;;;;;;4931354;29;19934;-87
2023/09/24 08:15:46;;;;;;;;;;;13.80;99.90;;;;;;4931660;29;19927;-86
2023/09/24 08:18:12;;;;;;;;;;;13.70;99.90;;;;;;4931082;29;20348;-85
2023/09/24 08:20:38;;;;;;;;;;;13.70;99.90;;;;;;4931576;29;19931;-87
2023/09/24 08:23:04;;;;;;;;;;;13.70;99.90;;;;;;4931813;29;19988;-85
2023/09/24 08:25:30;;;;;;;;;;;13.70;99.90;;;;;;4932693;29;19931;-86
2023/09/24 08:27:55;;;;;;;;;;;13.60;99.90;;;;;;4937634;29;20021;-86
2023/09/24 08:30:21;;;;;;;;;;;13.60;99.90;;;;;;4955482;28;20056;-86
2023/09/24 08:32:47;;;;;;;;;;;13.60;99.90;;;;;;4931635;29;19926;-90
2023/09/24 08:35:12;;;;;;;;;;;13.70;99.90;;;;;;4931621;29;19927;-86
2023/09/24 08:37:38;;;;;;;;;;;13.80;99.90;;;;;;4944510;28;19931;-88
2023/09/24 08:40:04;;;;;;;;;;;13.80;99.90;;;;;;4917012;28;19933;-86
2023/09/24 08:42:31;;;;;;;;;;;13.90;99.90;;;;;;4931690;29;19962;-83
2023/09/24 08:45:08;;;;;;;;;;;14.00;99.90;;;;;;4931216;29;19938;-83
2023/09/24 08:47:34;;;;;;;;;;;14.10;99.90;;;;;;4931859;29;19926;-83
2023/09/24 08:50:03;;;;;;;;;;;14.20;99.90;;;;;;4932006;29;19934;-83
2023/09/24 08:52:33;;;;;;;;;;;14.30;99.90;;;;;;4932114;29;19938;-83
2023/09/24 08:54:59;;;;;;;;;;;14.40;99.90;;;;;;4926299;28;20310;-83
2023/09/24 08:57:25;;;;;;;;;;;14.40;99.90;;;;;;4931391;29;19931;-83
2023/09/24 08:59:51;;;;;;;;;;;14.60;99.90;;;;;;4932070;29;19927;-83
2023/09/24 09:02:16;;;;;;;;;;;14.70;99.90;;;;;;4931050;29;20389;-82
2023/09/24 09:04:48;;;;;;;;;;;15.00;99.90;;;;;;4931264;29;19967;-83
2023/09/24 09:07:15;;;;;;;;;;;15.20;99.90;;;;;;4929774;29;20021;-85
2023/09/24 09:09:41;;;;;;;;;;;15.30;99.90;;;;;;4933044;29;19927;-83
2023/09/24 09:12:17;;;;;;;;;;;15.50;99.90;;;;;;4934346;29;19927;-84
2023/09/24 09:14:43;;;;;;;;;;;15.60;99.90;;;;;;4934525;29;19930;-83
2023/09/24 09:17:08;;;;;;;;;;;16.10;99.90;;;;;;4933843;29;19980;-84
2023/09/24 09:19:49;;;;;;;;;;;16.20;99.90;;;;;;4929142;29;19938;-87
2023/09/24 09:22:16;;;;;;;;;;;16.40;99.90;;;;;;4932101;28;19927;-83
2023/09/24 09:24:41;;;;;;;;;;;16.70;99.90;;;;;;4934152;29;19930;-83
2023/09/24 09:27:07;;;;;;;;;;;17.10;99.90;;;;;;4932139;28;19984;-84
2023/09/24 09:29:33;;;;;;;;;;;17.70;99.90;;;;;;4933774;29;20003;-83
2023/09/24 09:31:58;;;;;;;;;;;18.20;99.90;;;;;;4951304;28;20033;-83
2023/09/24 09:34:24;;;;;;;;;;;18.80;99.90;;;;;;4938934;28;19949;-83
2023/09/24 09:36:50;;;;;;;;;;;19.20;99.90;;;;;;4930830;29;20006;-84
2023/09/24 09:39:16;;;;;;;;;;;19.60;99.90;;;;;;4928113;29;19934;-83
2023/09/24 09:41:42;;;;;;;;;;;19.90;99.90;;;;;;4934396;29;19938;-83
2023/09/24 09:44:08;;;;;;;;;;;20.10;99.90;;;;;;4936788;29;19993;-83
2023/09/24 09:46:35;;;;;;;;;;;20.30;99.90;;;;;;4935757;29;20028;-83
2023/09/24 09:49:07;;;;;;;;;;;20.50;99.90;;;;;;4933318;29;19927;-84
2023/09/24 09:51:36;;;;;;;;;;;20.80;99.90;;;;;;4932600;28;19950;-84
2023/09/24 09:54:05;;;;;;;;;;;21.00;99.90;;;;;;4934261;29;19927;-84
2023/09/24 09:56:31;;;;;;;;;;;21.30;99.90;;;;;;4934683;29;19950;-83
2023/09/24 09:58:57;;;;;;;;;;;21.30;99.90;;;;;;4935482;29;19931;-87
2023/09/24 10:01:23;;;;;;;;;;;21.40;99.90;;;;;;4931516;29;19931;-87
2023/09/24 10:03:53;;;;;;;;;;;21.40;99.90;;;;;;4930781;29;19937;-86
2023/09/24 10:06:18;;;;;;;;;;;21.10;99.90;;;;;;4932557;29;20471;-86
2023/09/24 10:08:47;;;;;;;;;;;20.90;99.90;;;;;;4933325;29;20029;-86
2023/09/24 10:11:31;;;;;;;;;;;20.70;99.90;;;;;;4948103;28;20028;-91
2023/09/24 10:13:57;;;;;;;;;;;20.50;99.90;;;;;;4933379;29;20286;-84
2023/09/24 10:16:26;;;;;;;;;;;20.30;99.90;;;;;;4933434;29;19981;-88
2023/09/24 10:18:58;;;;;;;;;;;19.90;99.90;;;;;;4933904;28;19985;-85
2023/09/24 10:21:37;;;;;;;;;;;19.70;99.90;;;;;;4934611;29;19926;-86
2023/09/24 10:24:28;;;;;;;;;;;19.60;99.90;;;;;;4930222;29;20030;-87
2023/09/24 10:27:03;;;;;;;;;;;19.50;99.90;;;;;;4929796;29;19933;-86
2023/09/24 10:29:55;;;;;;;;;;;19.50;99.90;;;;;;4932590;28;19931;-84
2023/09/24 10:32:23;;;;;;;;;;;19.50;99.90;;;;;;4916151;29;20304;-87
2023/09/24 10:34:55;;;;;;;;;;;19.60;99.90;;;;;;4915643;29;19984;-86
2023/09/24 10:37:39;;;;;;;;;;;19.60;99.90;;;;;;4933405;29;20013;-87
2023/09/24 10:40:07;;;;;;;;;;;19.50;99.90;;;;;;4921240;28;19927;-89
2023/09/24 10:42:37;;;;;;;;;;;19.50;99.90;;;;;;4933348;29;19931;-86
2023/09/24 10:45:06;;;;;;;;;;;19.60;99.90;;;;;;4939013;29;20018;-87
2023/09/24 10:47:34;;;;;;;;;;;19.60;99.90;;;;;;4931867;29;20013;-86
2023/09/24 10:50:06;;;;;;;;;;;19.60;99.90;;;;;;4923621;29;19927;-84
2023/09/24 10:52:51;;;;;;;;;;;19.70;99.90;;;;;;4925162;29;20053;-85
2023/09/24 10:55:17;;;;;;;;;;;19.70;99.90;;;;;;4931943;29;19934;-86
2023/09/24 10:57:43;;;;;;;;;;;19.70;99.90;;;;;;4933261;29;20382;-85
2023/09/24 11:00:14;;;;;;;;;;;19.80;99.90;;;;;;4933923;29;20025;-85
2023/09/24 11:02:39;;;;;;;;;;;19.80;99.90;;;;;;4933703;29;19927;-85
2023/09/24 11:05:05;;;;;;;;;;;19.80;99.90;;;;;;4930905;29;20401;-85
2023/09/24 11:07:31;;;;;;;;;;;19.90;99.90;;;;;;4932483;29;20029;-84
2023/09/24 11:09:56;;;;;;;;;;;20.00;99.90;;;;;;4930578;29;19934;-86
2023/09/24 11:12:22;;;;;;;;;;;20.00;99.90;;;;;;4933537;29;19934;-85
2023/09/24 11:14:57;;;;;;;;;;;20.10;99.90;;;;;;4933380;29;19937;-85
2023/09/24 11:17:23;;;;;;;;;;;20.10;99.90;;;;;;4934481;28;20274;-84
2023/09/24 11:19:49;;;;;;;;;;;20.00;99.90;;;;;;4931722;28;19927;-85
2023/09/24 11:22:18;;;;;;;;;;;20.00;99.90;;;;;;4935116;29;20297;-85
2023/09/24 11:24:44;;;;;;;;;;;20.00;99.90;;;;;;4932440;28;19938;-89
2023/09/24 11:27:10;;;;;;;;;;;20.00;99.90;;;;;;4915137;29;20275;-88
2023/09/24 11:29:36;;;;;;;;;;;20.00;99.90;;;;;;4931883;29;19978;-85
2023/09/24 11:32:02;;;;;;;;;;;20.10;99.90;;;;;;4924626;29;20374;-84
2023/09/24 11:34:29;;;;;;;;;;;20.00;99.90;;;;;;4932607;28;19931;-83
2023/09/24 11:36:58;;;;;;;;;;;20.10;99.90;;;;;;5004855;28;19960;-86
2023/09/24 11:39:24;;;;;;;;;;;20.20;99.90;;;;;;4936955;28;19927;-84
2023/09/24 11:41:50;;;;;;;;;;;20.20;99.90;;;;;;4932070;29;19927;-86
2023/09/24 11:44:16;;;;;;;;;;;20.20;99.90;;;;;;4932324;28;19927;-87
2023/09/24 11:46:42;;;;;;;;;;;20.20;99.90;;;;;;4933090;29;20365;-85
2023/09/24 11:49:08;;;;;;;;;;;20.30;99.90;;;;;;4932614;29;20355;-83
2023/09/24 11:51:35;;;;;;;;;;;20.30;99.90;;;;;;4932957;29;19938;-85
2023/09/24 11:54:01;;;;;;;;;;;20.30;99.90;;;;;;4931219;29;20390;-87
2023/09/24 11:56:27;;;;;;;;;;;20.40;99.90;;;;;;4932836;29;19931;-85
2023/09/24 11:58:52;;;;;;;;;;;20.40;99.90;;;;;;4932675;29;20385;-85
2023/09/24 12:01:18;;;;;;;;;;;20.50;99.90;;;;;;4931959;28;20302;-85
2023/09/24 12:03:45;;;;;;;;;;;20.60;99.90;;;;;;4931412;28;19933;-86
2023/09/24 12:06:10;;;;;;;;;;;20.70;99.90;;;;;;4934435;28;19981;-85
2023/09/24 12:08:36;;;;;;;;;;;20.70;99.90;;;;;;4932919;29;19993;-84
2023/09/24 12:11:02;;;;;;;;;;;20.70;99.90;;;;;;4932690;29;19927;-85
2023/09/24 12:13:27;;;;;;;;;;;20.80;99.90;;;;;;4931761;29;19938;-85
2023/09/24 12:15:53;;;;;;;;;;;20.70;99.90;;;;;;4931657;29;20369;-85
2023/09/24 12:18:18;;;;;;;;;;;20.90;99.90;;;;;;4932970;28;20297;-86
2023/09/24 12:20:44;;;;;;;;;;;20.90;99.90;;;;;;4932872;28;20057;-87
2023/09/24 12:23:10;;;;;;;;;;;21.00;99.90;;;;;;4932001;28;19927;-87
2023/09/24 12:25:37;;;;;;;;;;;21.00;99.90;;;;;;4931919;29;19934;-90
2023/09/24 12:28:06;;;;;;;;;;;20.90;99.90;;;;;;4932643;29;19927;-86
2023/09/24 12:30:32;;;;;;;;;;;20.90;99.90;;;;;;4930906;29;19973;-87
2023/09/24 12:32:58;;;;;;;;;;;20.80;99.90;;;;;;4915810;29;19931;-87
2023/09/24 12:35:26;;;;;;;;;;;20.80;99.90;;;;;;4930678;29;19934;-85
2023/09/24 12:37:55;;;;;;;;;;;20.70;99.90;;;;;;4931424;29;19926;-87
2023/09/24 12:40:21;;;;;;;;;;;20.70;99.90;;;;;;4931517;29;19931;-85
2023/09/24 12:42:47;;;;;;;;;;;20.70;99.90;;;;;;4932323;29;19927;-85
2023/09/24 12:45:13;;;;;;;;;;;20.50;99.90;;;;;;4932713;29;19927;-86
2023/09/24 12:47:39;;;;;;;;;;;20.50;99.90;;;;;;4935076;28;19935;-86
2023/09/24 12:50:06;;;;;;;;;;;20.50;99.90;;;;;;4935281;29;19934;-87
2023/09/24 12:52:33;;;;;;;;;;;20.50;99.90;;;;;;4950510;28;20277;-86
2023/09/24 12:54:59;;;;;;;;;;;20.50;99.90;;;;;;4935433;29;19942;-87
2023/09/24 12:57:25;;;;;;;;;;;20.50;99.90;;;;;;4933256;29;19931;-87
2023/09/24 12:59:51;;;;;;;;;;;20.50;99.90;;;;;;4935588;28;19927;-85
2023/09/24 13:02:17;;;;;;;;;;;20.50;99.90;;;;;;4934808;29;19989;-85
2023/09/24 13:04:46;;;;;;;;;;;20.60;99.90;;;;;;4918989;29;19927;-88
2023/09/24 13:07:11;;;;;;;;;;;20.60;99.90;;;;;;4933763;29;19931;-87
2023/09/24 13:09:37;;;;;;;;;;;20.70;99.90;;;;;;4932342;29;19957;-85
2023/09/24 13:12:02;;;;;;;;;;;20.70;99.90;;;;;;4934737;28;19927;-85
2023/09/24 13:14:28;;;;;;;;;;;20.80;99.90;;;;;;4934426;29;19938;-86
2023/09/24 13:16:54;;;;;;;;;;;20.90;99.90;;;;;;4934349;29;19930;-87
2023/09/24 13:19:19;;;;;;;;;;;20.90;99.90;;;;;;4918136;29;19988;-86
2023/09/24 13:21:45;;;;;;;;;;;21.10;99.90;;;;;;4909803;29;19928;-88
2023/09/24 13:24:10;;;;;;;;;;;21.30;99.90;;;;;;4929700;29;20000;-85
2023/09/24 13:26:36;;;;;;;;;;;21.40;99.90;;;;;;4915379;29;19927;-87
2023/09/24 13:29:02;;;;;;;;;;;21.40;99.90;;;;;;4930763;29;20432;-85
2023/09/24 13:31:28;;;;;;;;;;;21.40;99.90;;;;;;4933446;29;19931;-87
2023/09/24 13:33:54;;;;;;;;;;;21.40;99.90;;;;;;4935121;29;19981;-86
2023/09/24 13:36:21;;;;;;;;;;;21.30;99.90;;;;;;4934050;29;19935;-88
2023/09/24 13:38:46;;;;;;;;;;;21.20;99.90;;;;;;4917406;29;20324;-85
2023/09/24 13:41:12;;;;;;;;;;;21.10;99.90;;;;;;4933888;28;19926;-89
2023/09/24 13:43:38;;;;;;;;;;;21.20;99.90;;;;;;4933977;29;19964;-88
2023/09/24 13:46:03;;;;;;;;;;;21.20;99.90;;;;;;4934248;29;19977;-87
2023/09/24 13:48:30;;;;;;;;;;;21.10;99.90;;;;;;4932209;29;19931;-84
2023/09/24 13:50:56;;;;;;;;;;;20.90;99.90;;;;;;4933622;28;20441;-88
2023/09/24 13:53:21;;;;;;;;;;;20.90;99.90;;;;;;4949850;28;19931;-85
2023/09/24 13:55:48;;;;;;;;;;;20.90;99.90;;;;;;4933682;29;19930;-86
2023/09/24 13:58:13;;;;;;;;;;;20.80;99.90;;;;;;4917552;29;20404;-85
2023/09/24 14:00:39;;;;;;;;;;;20.80;99.90;;;;;;4934772;29;19927;-86
2023/09/24 14:03:04;;;;;;;;;;;20.80;99.90;;;;;;4933168;29;20428;-87
2023/09/24 14:05:30;;;;;;;;;;;20.80;99.90;;;;;;4914232;28;19931;-86
2023/09/24 14:13:25;;;;;;;;;;;20.90;99.90;;;;;;4933601;29;19927;-85
2023/09/24 14:15:51;;;;;;;;;;;20.90;99.90;;;;;;4955774;28;19930;-86
2023/09/24 14:18:16;;;;;;;;;;;21.00;99.90;;;;;;4924258;29;19931;-88
2023/09/24 14:20:42;;;;;;;;;;;21.10;99.90;;;;;;4932290;29;19927;-84
2023/09/24 14:23:07;;;;;;;;;;;21.10;99.90;;;;;;4934673;29;19989;-85